createdAt,value
2022-12-05T00:02:27.841Z,7.40
2022-12-05T00:04:57.690Z,8.00
2022-12-05T00:07:26.428Z,7.00
2022-12-05T00:09:54.941Z,5.60
2022-12-05T00:12:23.860Z,7.40
2022-12-05T00:14:52.306Z,6.40
2022-12-05T00:17:21.222Z,6.00
2022-12-05T00:19:53.667Z,8.00
2022-12-05T00:22:27.007Z,6.80
2022-12-05T00:24:55.348Z,8.60
2022-12-05T00:27:24.295Z,7.20
2022-12-05T00:29:52.696Z,5.00
2022-12-05T00:32:21.556Z,5.40
2022-12-05T00:34:50.098Z,8.80
2022-12-05T00:37:18.862Z,7.00
2022-12-05T00:39:48.669Z,9.80
2022-12-05T00:42:17.457Z,4.20
2022-12-05T00:44:45.903Z,7.00
2022-12-05T00:47:14.572Z,3.40
2022-12-05T00:49:42.992Z,6.40
2022-12-05T00:52:11.643Z,5.60
2022-12-05T00:54:40.183Z,5.40
2022-12-05T00:57:10.295Z,6.20
2022-12-05T00:59:38.705Z,5.40
2022-12-05T01:02:07.442Z,3.00
2022-12-05T01:04:36.024Z,9.20
2022-12-05T01:07:04.825Z,5.00
2022-12-05T01:09:33.178Z,2.40
2022-12-05T01:12:01.967Z,4.80
2022-12-05T01:14:31.810Z,6.00
2022-12-05T01:17:00.549Z,5.00
2022-12-05T01:19:31.126Z,4.20
2022-12-05T01:22:01.047Z,3.80
2022-12-05T01:24:30.407Z,5.00
2022-12-05T01:26:59.134Z,5.20
2022-12-05T01:29:27.567Z,4.60
2022-12-05T01:31:57.709Z,4.20
2022-12-05T01:34:26.126Z,5.80
2022-12-05T01:36:54.802Z,6.20
2022-12-05T01:39:23.700Z,2.60
2022-12-05T01:41:52.632Z,3.80
2022-12-05T01:44:58.320Z,5.00
2022-12-05T01:47:30.387Z,6.20
2022-12-05T01:50:00.273Z,3.80
2022-12-05T01:52:32.257Z,4.60
2022-12-05T01:55:04.780Z,2.60
2022-12-05T01:57:34.350Z,3.00
2022-12-05T02:00:13.370Z,5.60
2022-12-05T02:02:48.414Z,7.40
2022-12-05T02:05:21.435Z,4.60
2022-12-05T02:07:50.599Z,5.60
2022-12-05T02:10:19.678Z,2.40
2022-12-05T02:12:50.975Z,4.60
2022-12-05T02:15:31.409Z,5.60
2022-12-05T02:18:15.074Z,4.80
2022-12-05T02:20:56.270Z,2.00
2022-12-05T02:23:44.315Z,3.80
2022-12-05T02:26:43.209Z,3.00
2022-12-05T02:29:51.332Z,8.60
2022-12-05T02:32:34.562Z,6.00
2022-12-05T02:35:15.223Z,3.40
2022-12-05T02:37:53.454Z,4.20
2022-12-05T02:40:28.647Z,5.80
2022-12-05T02:43:05.886Z,3.00
2022-12-05T02:45:38.423Z,7.00
2022-12-05T02:48:10.686Z,7.00
2022-12-05T02:50:41.633Z,5.20
2022-12-05T02:53:13.683Z,3.20
2022-12-05T02:55:43.217Z,4.80
2022-12-05T02:58:18.393Z,5.80
2022-12-05T03:00:50.821Z,2.60
2022-12-05T03:03:23.955Z,3.00
2022-12-05T03:06:01.148Z,3.00
2022-12-05T03:08:33.676Z,2.00
2022-12-05T03:11:04.700Z,3.00
2022-12-05T03:13:39.104Z,3.00
2022-12-05T03:16:14.420Z,3.00
2022-12-05T03:18:49.714Z,5.80
2022-12-05T03:21:31.843Z,3.40
2022-12-05T03:24:05.858Z,3.00
2022-12-05T03:26:46.000Z,3.80
2022-12-05T03:29:25.950Z,5.80
2022-12-05T03:32:04.253Z,5.20
2022-12-05T03:34:44.444Z,4.60
2022-12-05T03:37:21.466Z,6.00
2022-12-05T03:40:00.252Z,4.20
2022-12-05T03:42:34.471Z,5.60
2022-12-05T03:45:09.789Z,4.20
2022-12-05T03:47:48.430Z,5.80
2022-12-05T03:50:23.905Z,3.80
2022-12-05T03:53:19.153Z,3.40
2022-12-05T03:55:50.971Z,3.00
2022-12-05T03:58:27.884Z,6.60
2022-12-05T04:01:00.601Z,5.20
2022-12-05T04:03:40.285Z,7.60
2022-12-05T04:06:17.163Z,5.00
2022-12-05T04:08:51.093Z,8.20
2022-12-05T04:11:24.359Z,7.40
2022-12-05T04:13:56.035Z,5.80
2022-12-05T04:16:46.571Z,6.00
2022-12-05T04:19:20.815Z,4.60
2022-12-05T04:21:53.635Z,5.00
2022-12-05T04:24:44.397Z,4.20
2022-12-05T04:27:24.098Z,9.20
2022-12-05T04:30:02.599Z,5.00
2022-12-05T04:32:38.612Z,7.00
2022-12-05T04:35:13.429Z,6.40
2022-12-05T04:37:47.734Z,5.80
2022-12-05T04:40:23.591Z,9.60
2022-12-05T04:42:56.024Z,6.60
2022-12-05T04:45:27.516Z,6.00
2022-12-05T04:48:00.430Z,5.00
2022-12-05T04:50:34.734Z,5.00
2022-12-05T04:53:05.113Z,8.80
2022-12-05T04:55:38.566Z,5.00
2022-12-05T04:58:10.342Z,5.00
2022-12-05T05:00:47.830Z,6.80
2022-12-05T05:03:22.261Z,5.60
2022-12-05T05:05:54.277Z,11.40
2022-12-05T05:08:26.040Z,5.80
2022-12-05T05:11:08.319Z,3.40
2022-12-05T05:13:36.718Z,3.40
2022-12-05T05:16:06.126Z,6.20
2022-12-05T05:18:34.863Z,2.80
2022-12-05T05:21:03.671Z,11.40
2022-12-05T05:23:33.508Z,6.20
2022-12-05T05:26:02.302Z,6.60
2022-12-05T05:28:30.850Z,5.40
2022-12-05T05:31:03.628Z,5.00
2022-12-05T05:33:32.137Z,6.00
2022-12-05T05:36:04.207Z,11.60
2022-12-05T05:38:36.942Z,6.60
2022-12-05T05:41:06.358Z,3.00
2022-12-05T05:43:34.811Z,5.00
2022-12-05T05:46:05.372Z,5.00
2022-12-05T05:48:34.321Z,8.00
2022-12-05T05:51:03.837Z,6.00
2022-12-05T05:53:33.730Z,9.40
2022-12-05T05:56:04.030Z,3.80
2022-12-05T05:58:32.712Z,4.80
2022-12-05T06:01:05.050Z,5.60
2022-12-05T06:03:34.146Z,5.60
2022-12-05T06:06:05.771Z,5.20
2022-12-05T06:08:37.432Z,3.40
2022-12-05T06:11:07.267Z,1.00
2022-12-05T06:13:35.870Z,2.00
2022-12-05T06:16:07.625Z,5.20
2022-12-05T06:18:36.180Z,5.00
2022-12-05T06:21:11.749Z,9.00
2022-12-05T06:23:46.374Z,6.40
2022-12-05T06:26:17.591Z,9.00
2022-12-05T06:28:46.649Z,6.60
2022-12-05T06:31:17.389Z,8.20
2022-12-05T06:33:46.410Z,9.00
2022-12-05T06:36:17.291Z,6.00
2022-12-05T06:38:47.052Z,5.40
2022-12-05T06:41:17.322Z,6.00
2022-12-05T06:43:45.816Z,10.00
2022-12-05T06:46:16.366Z,7.00
2022-12-05T06:48:44.957Z,9.20
2022-12-05T06:51:15.336Z,8.20
2022-12-05T06:53:44.605Z,8.80
2022-12-05T06:56:16.739Z,6.60
2022-12-05T06:58:46.573Z,7.00
2022-12-05T07:01:34.328Z,5.00
2022-12-05T07:04:03.210Z,6.60
2022-12-05T07:06:32.085Z,5.80
2022-12-05T07:09:00.514Z,6.80
2022-12-05T07:11:30.937Z,9.60
2022-12-05T07:13:59.538Z,8.00
2022-12-05T07:16:28.371Z,5.60
2022-12-05T07:18:57.552Z,7.00
2022-12-05T07:21:26.542Z,6.20
2022-12-05T07:23:55.685Z,5.60
2022-12-05T07:26:25.545Z,5.00
2022-12-05T07:28:57.423Z,9.60
2022-12-05T07:31:26.623Z,5.00
2022-12-05T07:33:55.026Z,6.80
2022-12-05T07:36:24.129Z,6.00
2022-12-05T07:38:57.114Z,7.00
2022-12-05T07:41:27.464Z,10.20
2022-12-05T07:43:58.911Z,7.00
2022-12-05T07:46:29.563Z,5.80
2022-12-05T07:48:58.535Z,7.00
2022-12-05T07:51:27.265Z,8.00
2022-12-05T07:53:55.706Z,5.60
2022-12-05T07:56:24.415Z,8.40
2022-12-05T07:58:53.716Z,6.60
2022-12-05T08:01:25.657Z,8.00
2022-12-05T08:03:55.286Z,5.20
2022-12-05T08:06:26.310Z,8.60
2022-12-05T08:08:55.372Z,6.00
2022-12-05T08:11:26.810Z,8.80
2022-12-05T08:13:56.476Z,7.80
2022-12-05T08:16:29.180Z,7.80
2022-12-05T08:18:58.251Z,6.80
2022-12-05T08:21:27.603Z,4.00
2022-12-05T08:23:56.497Z,6.00
2022-12-05T08:26:28.066Z,7.00
2022-12-05T08:28:59.487Z,8.00
2022-12-05T08:31:31.460Z,6.80
2022-12-05T08:34:01.531Z,7.00
2022-12-05T08:36:32.095Z,7.00
2022-12-05T08:39:01.986Z,7.00
2022-12-05T08:41:31.257Z,7.40
2022-12-05T08:44:01.489Z,4.80
2022-12-05T08:46:32.066Z,7.20
2022-12-05T08:49:00.871Z,7.80
2022-12-05T08:51:29.674Z,7.40
2022-12-05T08:53:58.029Z,7.40
2022-12-05T08:56:27.602Z,6.20
2022-12-05T08:59:03.173Z,7.80
2022-12-05T09:01:39.181Z,8.80
2022-12-05T09:04:08.722Z,10.80
2022-12-05T09:06:39.430Z,7.00
2022-12-05T09:09:11.785Z,7.80
2022-12-05T09:11:46.375Z,8.20
2022-12-05T09:14:15.442Z,6.00
2022-12-05T09:16:47.500Z,7.60
2022-12-05T09:19:20.843Z,8.80
2022-12-05T09:21:49.796Z,9.60
2022-12-05T09:24:18.243Z,8.40
2022-12-05T09:26:47.530Z,8.20
2022-12-05T09:29:17.867Z,9.40
2022-12-05T09:31:52.280Z,10.80
2022-12-05T09:34:20.708Z,9.40
2022-12-05T09:37:01.359Z,8.80
2022-12-05T09:39:38.850Z,6.60
2022-12-05T09:42:24.582Z,7.00
2022-12-05T09:45:15.489Z,9.80
2022-12-05T09:47:53.494Z,8.00
2022-12-05T09:50:25.104Z,9.60
2022-12-05T09:53:04.078Z,12.20
2022-12-05T09:55:41.638Z,11.20
2022-12-05T09:58:22.972Z,13.20
2022-12-05T10:00:59.643Z,12.60
2022-12-05T10:03:38.874Z,10.00
2022-12-05T10:06:16.552Z,8.60
2022-12-05T10:09:02.233Z,14.00
2022-12-05T10:11:38.350Z,11.20
2022-12-05T10:14:16.117Z,10.20
2022-12-05T10:16:50.737Z,10.20
2022-12-05T10:19:27.156Z,10.60
2022-12-05T10:22:01.179Z,12.60
2022-12-05T10:24:35.025Z,11.20
2022-12-05T10:27:07.493Z,9.60
2022-12-05T10:29:41.714Z,14.60
2022-12-05T10:32:15.737Z,14.20
2022-12-05T10:34:46.722Z,14.80
2022-12-05T10:37:17.675Z,17.00
2022-12-05T10:39:47.457Z,15.20
2022-12-05T10:42:19.134Z,15.20
2022-12-05T10:44:49.118Z,18.60
2022-12-05T10:47:17.743Z,13.00
2022-12-05T10:49:48.297Z,11.80
2022-12-05T10:52:17.132Z,14.20
2022-12-05T10:54:50.846Z,10.80
2022-12-05T10:57:24.722Z,5.60
2022-12-05T10:59:54.563Z,10.60
2022-12-05T11:02:27.562Z,18.60
2022-12-05T11:04:58.596Z,12.20
2022-12-05T11:07:32.537Z,6.20
2022-12-05T11:10:03.452Z,14.80
2022-12-05T11:12:39.309Z,12.60
2022-12-05T11:15:24.396Z,15.60
2022-12-05T11:17:54.003Z,12.00
2022-12-05T11:20:40.399Z,15.00
2022-12-05T11:23:28.071Z,17.00
2022-12-05T11:25:58.573Z,13.00
2022-12-05T11:28:36.795Z,11.40
2022-12-05T11:31:09.041Z,13.60
2022-12-05T11:33:37.976Z,16.60
2022-12-05T11:36:19.389Z,13.00
2022-12-05T11:38:48.372Z,15.80
2022-12-05T11:41:34.160Z,14.00
2022-12-05T11:44:52.220Z,17.40
2022-12-05T11:47:36.195Z,17.60
2022-12-05T11:50:26.069Z,16.00
2022-12-05T11:53:13.993Z,16.00
2022-12-05T11:55:47.274Z,17.00
2022-12-05T11:58:39.286Z,16.80
2022-12-05T12:01:18.510Z,13.20
2022-12-05T12:04:17.946Z,15.40
2022-12-05T12:07:00.765Z,17.20
2022-12-05T12:09:43.402Z,17.40
2022-12-05T12:12:24.518Z,12.00
2022-12-05T12:15:03.790Z,13.00
2022-12-05T12:17:42.900Z,14.40
2022-12-05T12:20:27.052Z,13.20
2022-12-05T12:23:16.735Z,13.00
2022-12-05T12:26:00.636Z,15.20
2022-12-05T12:28:40.488Z,12.60
2022-12-05T12:31:36.420Z,11.80
2022-12-05T12:34:22.077Z,14.60
2022-12-05T12:36:56.037Z,11.60
2022-12-05T12:39:39.010Z,15.00
2022-12-05T12:42:21.729Z,12.60
2022-12-05T12:45:16.487Z,13.00
2022-12-05T12:47:55.336Z,11.60
2022-12-05T12:50:26.462Z,12.00
2022-12-05T12:53:22.228Z,11.80
2022-12-05T12:56:02.077Z,13.20
2022-12-05T12:58:45.492Z,14.00
2022-12-05T13:01:25.672Z,14.00
2022-12-05T13:04:02.724Z,12.60
2022-12-05T13:06:39.205Z,11.00
2022-12-05T13:09:17.746Z,12.20
2022-12-05T13:11:49.729Z,14.60
2022-12-05T13:14:25.247Z,15.60
2022-12-05T13:16:55.938Z,13.20
2022-12-05T13:19:29.850Z,15.40
2022-12-05T13:21:59.650Z,14.60
2022-12-05T13:24:29.871Z,17.40
2022-12-05T13:27:01.763Z,13.20
2022-12-05T13:29:36.098Z,14.80
2022-12-05T13:32:06.576Z,20.80
2022-12-05T13:34:49.045Z,14.80
2022-12-05T13:37:39.625Z,15.40
2022-12-05T13:40:43.659Z,13.60
2022-12-05T13:43:14.217Z,14.20
2022-12-05T13:46:01.379Z,12.80
2022-12-05T13:48:35.079Z,12.60
2022-12-05T13:51:08.037Z,17.40
2022-12-05T13:53:40.491Z,15.20
2022-12-05T13:56:27.038Z,17.20
2022-12-05T13:58:57.262Z,18.80
2022-12-05T14:01:53.824Z,13.80
2022-12-05T14:04:57.143Z,12.00
2022-12-05T14:07:44.023Z,14.00
2022-12-05T14:10:16.711Z,13.60
2022-12-05T14:12:56.644Z,16.00
2022-12-05T14:15:31.658Z,12.60
2022-12-05T14:18:12.109Z,17.00
2022-12-05T14:21:02.490Z,16.80
2022-12-05T14:23:49.086Z,16.00
2022-12-05T14:26:33.099Z,17.40
2022-12-05T14:29:29.065Z,19.80
2022-12-05T14:32:09.519Z,26.80
2022-12-05T14:34:53.694Z,28.20
2022-12-05T14:37:28.452Z,18.80
2022-12-05T14:40:00.320Z,19.40
2022-12-05T14:42:38.893Z,20.20
2022-12-05T14:45:28.200Z,18.80
2022-12-05T14:47:59.085Z,18.00
2022-12-05T14:50:44.775Z,21.00
2022-12-05T14:53:33.018Z,17.00
2022-12-05T14:56:14.089Z,18.00
2022-12-05T14:58:48.391Z,16.00
2022-12-05T15:01:21.183Z,19.60
2022-12-05T15:04:05.435Z,24.40
2022-12-05T15:06:44.484Z,21.60
2022-12-05T15:09:38.141Z,23.60
2022-12-05T15:12:14.551Z,22.20
2022-12-05T15:14:49.068Z,30.60
2022-12-05T15:17:25.223Z,31.40
2022-12-05T15:20:04.112Z,35.20
2022-12-05T15:22:59.291Z,30.80
2022-12-05T15:25:57.221Z,30.20
2022-12-05T15:33:53.636Z,32.00
2022-12-05T15:36:30.542Z,28.00
2022-12-05T15:39:04.858Z,24.60
2022-12-05T15:41:33.760Z,28.60
2022-12-05T15:44:02.191Z,25.40
2022-12-05T15:46:31.962Z,28.20
2022-12-05T15:49:01.264Z,23.00
2022-12-05T15:51:36.937Z,19.60
2022-12-05T15:54:12.828Z,25.80
2022-12-05T15:56:46.177Z,29.80
2022-12-05T15:59:19.279Z,25.40
2022-12-05T16:01:53.279Z,23.60
2022-12-05T16:04:29.844Z,22.20
2022-12-05T16:07:02.740Z,26.40
2022-12-05T16:09:34.923Z,20.60
2022-12-05T16:12:06.889Z,28.80
2022-12-05T16:17:30.176Z,29.00
2022-12-05T16:20:12.815Z,26.80
2022-12-05T16:22:46.246Z,30.20
2022-12-05T16:25:19.233Z,26.60
2022-12-05T16:28:01.213Z,29.20
2022-12-05T16:30:30.516Z,23.40
2022-12-05T16:33:02.907Z,23.80
2022-12-05T16:35:35.091Z,30.80
2022-12-05T16:38:11.144Z,26.40
2022-12-05T16:40:42.551Z,24.80
2022-12-05T16:43:21.494Z,23.40
2022-12-05T16:45:51.643Z,31.80
2022-12-05T16:48:23.687Z,23.40
2022-12-05T16:50:53.608Z,25.20
2022-12-05T16:53:33.116Z,29.40
2022-12-05T16:56:05.857Z,41.60
2022-12-05T16:58:36.829Z,30.80
2022-12-05T17:01:07.953Z,33.00
2022-12-05T17:03:36.739Z,30.20
2022-12-05T17:06:05.731Z,25.20
2022-12-05T17:08:34.808Z,33.40
2022-12-05T17:11:06.920Z,27.00
2022-12-05T17:13:35.611Z,25.40
2022-12-05T17:16:04.160Z,24.40
2022-12-05T17:18:32.844Z,27.00
2022-12-05T17:21:03.140Z,28.20
2022-12-05T17:23:31.883Z,28.80
2022-12-05T17:26:00.764Z,31.40
2022-12-05T17:28:31.051Z,29.40
2022-12-05T17:30:59.561Z,26.20
2022-12-05T17:33:28.297Z,29.60
2022-12-05T17:35:56.851Z,33.40
2022-12-05T17:38:25.562Z,30.40
2022-12-05T17:40:54.008Z,31.40
2022-12-05T17:43:25.355Z,27.20
2022-12-05T17:45:55.693Z,31.50
2022-12-05T17:48:26.411Z,29.80
2022-12-05T17:50:57.779Z,28.80
2022-12-05T17:53:26.507Z,30.60
2022-12-05T17:55:55.057Z,35.20
2022-12-05T17:58:23.917Z,18.60
2022-12-05T18:00:52.449Z,30.60
2022-12-05T18:03:22.802Z,25.40
2022-12-05T18:05:51.662Z,30.20
2022-12-05T18:08:20.788Z,31.00
2022-12-05T18:10:50.360Z,29.60
2022-12-05T18:13:19.506Z,23.80
2022-12-05T18:15:50.117Z,24.40
2022-12-05T18:18:19.477Z,31.80
2022-12-05T18:20:54.237Z,25.80
2022-12-05T18:23:25.730Z,24.60
2022-12-05T18:25:59.697Z,24.20
2022-12-05T18:28:28.892Z,26.80
2022-12-05T18:31:08.507Z,26.80
2022-12-05T18:33:40.322Z,24.00
2022-12-05T18:36:12.864Z,30.60
2022-12-05T18:38:42.822Z,21.80
2022-12-05T18:41:11.850Z,24.20
2022-12-05T18:43:40.838Z,26.20
2022-12-05T18:46:09.406Z,29.80
2022-12-05T18:48:40.059Z,24.00
2022-12-05T18:51:14.861Z,25.00
2022-12-05T18:53:51.725Z,27.40
2022-12-05T18:56:23.330Z,28.60
2022-12-05T18:58:57.133Z,24.00
2022-12-05T19:01:26.740Z,27.00
2022-12-05T19:03:56.108Z,24.60
2022-12-05T19:06:28.034Z,26.20
2022-12-05T19:08:57.868Z,21.40
2022-12-05T19:11:27.348Z,23.40
2022-12-05T19:13:56.966Z,24.00
2022-12-05T19:16:25.563Z,27.20
2022-12-05T19:18:56.220Z,26.20
2022-12-05T19:21:27.692Z,29.75
2022-12-05T19:23:57.364Z,26.20
2022-12-05T19:26:25.999Z,18.60
2022-12-05T19:28:55.479Z,21.60
2022-12-05T19:31:25.832Z,28.60
2022-12-05T19:33:57.511Z,21.40
2022-12-05T19:36:29.248Z,24.00
2022-12-05T19:38:59.571Z,21.00
2022-12-05T19:41:29.674Z,21.20
2022-12-05T19:44:04.856Z,23.20
2022-12-05T19:46:34.441Z,19.40
2022-12-05T19:49:15.706Z,25.80
2022-12-05T19:51:46.463Z,21.60
2022-12-05T19:54:17.779Z,17.00
2022-12-05T19:56:46.482Z,19.20
2022-12-05T19:59:16.859Z,21.40
2022-12-05T20:01:45.896Z,20.60
2022-12-05T20:04:17.325Z,21.60
2022-12-05T20:06:48.921Z,21.80
2022-12-05T20:09:19.657Z,20.00
2022-12-05T20:11:55.203Z,24.60
2022-12-05T20:14:25.813Z,24.00
2022-12-05T20:16:54.879Z,25.20
2022-12-05T20:19:24.082Z,26.80
2022-12-05T20:21:55.441Z,23.00
2022-12-05T20:24:24.285Z,20.40
2022-12-05T20:26:53.205Z,23.00
2022-12-05T20:29:22.590Z,26.20
2022-12-05T20:31:56.701Z,25.00
2022-12-05T20:34:25.629Z,26.80
2022-12-05T20:36:55.351Z,26.20
2022-12-05T20:39:24.852Z,21.20
2022-12-05T20:41:53.418Z,22.20
2022-12-05T20:44:22.551Z,17.80
2022-12-05T20:46:51.953Z,20.80
2022-12-05T20:49:21.175Z,20.80
2022-12-05T20:51:49.604Z,20.60
2022-12-05T20:54:19.891Z,23.20
2022-12-05T20:56:49.197Z,20.40
2022-12-05T20:59:17.971Z,22.20
2022-12-05T21:01:47.637Z,25.20
2022-12-05T21:04:16.852Z,24.00
2022-12-05T21:06:46.646Z,19.40
2022-12-05T21:09:26.693Z,14.40
2022-12-05T21:11:57.035Z,20.20
2022-12-05T21:14:25.995Z,16.60
2022-12-05T21:16:55.822Z,20.20
2022-12-05T21:19:24.672Z,21.80
2022-12-05T21:21:54.426Z,19.20
2022-12-05T21:24:23.964Z,20.20
2022-12-05T21:26:53.097Z,20.40
2022-12-05T21:29:23.310Z,21.20
2022-12-05T21:31:53.035Z,20.40
2022-12-05T21:46:40.701Z,18.40
2022-12-05T21:54:51.461Z,25.80
2022-12-05T21:57:24.597Z,23.00
2022-12-05T22:00:19.133Z,22.80
2022-12-05T22:02:48.095Z,20.60
2022-12-05T22:05:18.399Z,26.00
2022-12-05T22:07:46.864Z,23.00
2022-12-05T22:10:15.762Z,22.20
2022-12-05T22:12:45.927Z,25.20
2022-12-05T22:15:14.849Z,20.60
2022-12-05T22:17:43.412Z,23.00
2022-12-05T22:20:12.657Z,21.20
2022-12-05T22:22:41.179Z,22.40
2022-12-05T22:25:11.006Z,25.00
2022-12-05T22:27:39.475Z,19.80
2022-12-05T22:30:10.895Z,18.80
2022-12-05T22:32:39.313Z,18.40
2022-12-05T22:35:08.731Z,16.80
2022-12-05T22:37:37.403Z,20.40
2022-12-05T22:40:07.607Z,16.20
2022-12-05T22:42:35.997Z,18.60
2022-12-05T22:45:05.331Z,24.20
2022-12-05T22:47:35.038Z,23.20
2022-12-05T22:50:03.697Z,15.80
2022-12-05T22:52:32.358Z,20.60
2022-12-05T22:55:01.284Z,18.40
2022-12-05T22:57:29.950Z,16.20
2022-12-05T22:59:59.086Z,16.00
2022-12-05T23:02:27.678Z,16.60
2022-12-05T23:04:57.819Z,17.20
2022-12-05T23:07:26.383Z,17.80
2022-12-05T23:09:55.157Z,14.80
2022-12-05T23:12:23.596Z,17.00
2022-12-05T23:14:52.405Z,17.80
2022-12-05T23:17:20.834Z,13.00
2022-12-05T23:19:49.542Z,21.80
2022-12-05T23:22:19.253Z,18.00
2022-12-05T23:24:47.973Z,16.00
2022-12-05T23:27:18.801Z,16.00
2022-12-05T23:29:48.238Z,14.60
2022-12-05T23:32:16.556Z,11.80
2022-12-05T23:34:45.246Z,15.60
2022-12-05T23:37:13.644Z,15.00
2022-12-05T23:39:45.680Z,14.40
2022-12-05T23:42:15.454Z,20.20
2022-12-05T23:44:44.298Z,15.60
2022-12-05T23:47:12.881Z,11.20
2022-12-05T23:49:41.721Z,14.20
2022-12-05T23:52:10.420Z,14.00
2022-12-05T23:54:39.109Z,22.00
2022-12-05T23:57:13.323Z,15.00
2022-12-05T23:59:44.804Z,19.60
